createdAt,value
2019-01-23T00:00:04.004Z,974.49
2019-01-23T00:01:03.918Z,974.49
2019-01-23T00:02:03.828Z,974.46
2019-01-23T00:03:03.740Z,974.44
2019-01-23T00:04:03.652Z,974.42
2019-01-23T00:05:03.564Z,974.44
2019-01-23T00:06:03.477Z,974.45
2019-01-23T00:07:03.388Z,974.43
2019-01-23T00:08:03.300Z,974.39
2019-01-23T00:09:03.213Z,974.37
2019-01-23T00:10:03.124Z,974.36
2019-01-23T00:11:03.037Z,974.36
2019-01-23T00:12:02.949Z,974.36
2019-01-23T00:13:03.571Z,974.36
2019-01-23T00:14:02.773Z,974.31
2019-01-23T00:15:02.685Z,974.32
2019-01-23T00:16:02.598Z,974.34
2019-01-23T00:17:02.511Z,974.31
2019-01-23T00:18:02.422Z,974.33
2019-01-23T00:19:02.336Z,974.34
2019-01-23T00:20:02.247Z,974.31
2019-01-23T00:21:02.159Z,974.33
2019-01-23T00:22:02.074Z,974.28
2019-01-23T00:23:01.984Z,974.29
2019-01-23T00:24:01.897Z,974.23
2019-01-23T00:25:01.810Z,974.25
2019-01-23T00:26:01.720Z,974.25
2019-01-23T00:27:01.633Z,974.27
2019-01-23T00:28:01.547Z,974.23
2019-01-23T00:29:01.458Z,974.26
2019-01-23T00:30:01.370Z,974.25
2019-01-23T00:31:01.281Z,974.25
2019-01-23T00:32:01.195Z,974.28
2019-01-23T00:33:01.108Z,974.26
2019-01-23T00:34:01.019Z,974.23
2019-01-23T00:35:00.931Z,974.24
2019-01-23T00:36:00.845Z,974.20
2019-01-23T00:37:00.757Z,974.22
2019-01-23T00:38:00.668Z,974.18
2019-01-23T00:39:00.583Z,974.21
2019-01-23T00:40:00.495Z,974.18
2019-01-23T00:41:00.409Z,974.19
2019-01-23T00:42:00.318Z,974.15
2019-01-23T00:43:00.232Z,974.16
2019-01-23T00:44:00.144Z,974.14
2019-01-23T00:45:00.058Z,974.16
2019-01-23T00:45:59.970Z,974.18
2019-01-23T00:46:59.881Z,974.14
2019-01-23T00:47:59.795Z,974.17
2019-01-23T00:48:59.707Z,974.15
2019-01-23T00:49:59.620Z,974.10
2019-01-23T00:50:59.532Z,974.10
2019-01-23T00:51:59.444Z,974.07
2019-01-23T00:52:59.357Z,974.04
2019-01-23T00:53:59.269Z,974.08
2019-01-23T00:54:59.532Z,974.06
2019-01-23T00:55:59.095Z,974.07
2019-01-23T00:56:59.007Z,974.05
2019-01-23T00:57:58.919Z,974.04
2019-01-23T00:58:58.832Z,974.03
2019-01-23T00:59:58.744Z,974.03
2019-01-23T01:00:58.658Z,974.03
2019-01-23T01:01:58.570Z,973.99
2019-01-23T01:02:58.486Z,973.99
2019-01-23T01:03:58.396Z,973.96
2019-01-23T01:04:58.314Z,973.94
2019-01-23T01:05:58.220Z,973.93
2019-01-23T01:06:58.135Z,973.92
2019-01-23T01:07:58.046Z,973.95
2019-01-23T01:08:57.959Z,973.90
2019-01-23T01:09:57.871Z,973.91
2019-01-23T01:10:57.883Z,973.90
2019-01-23T01:11:57.697Z,973.89
2019-01-23T01:12:57.610Z,973.85
2019-01-23T01:13:57.523Z,973.88
2019-01-23T01:14:57.433Z,973.84
2019-01-23T01:15:57.351Z,973.83
2019-01-23T01:16:57.261Z,973.86
2019-01-23T01:17:57.173Z,973.78
2019-01-23T01:18:57.087Z,973.78
2019-01-23T01:19:56.999Z,973.77
2019-01-23T01:20:56.914Z,973.76
2019-01-23T01:21:56.826Z,973.77
2019-01-23T01:22:56.739Z,973.76
2019-01-23T01:23:56.649Z,973.77
2019-01-23T01:24:56.566Z,973.74
2019-01-23T01:25:56.475Z,973.71
2019-01-23T01:26:56.388Z,973.72
2019-01-23T01:27:56.301Z,973.74
2019-01-23T01:28:56.283Z,973.72
2019-01-23T01:29:56.125Z,973.74
2019-01-23T01:30:56.039Z,973.73
2019-01-23T01:31:55.954Z,973.70
2019-01-23T01:32:55.866Z,973.69
2019-01-23T01:33:55.778Z,973.66
2019-01-23T01:34:55.691Z,973.64
2019-01-23T01:35:55.604Z,973.67
2019-01-23T01:36:55.517Z,973.64
2019-01-23T01:37:55.429Z,973.61
2019-01-23T01:38:55.343Z,973.58
2019-01-23T01:39:55.256Z,973.59
2019-01-23T01:40:55.168Z,973.51
2019-01-23T01:41:55.081Z,973.55
2019-01-23T01:42:54.995Z,973.51
2019-01-23T01:43:54.906Z,973.53
2019-01-23T01:44:54.821Z,973.49
2019-01-23T01:45:54.732Z,973.51
2019-01-23T01:46:54.650Z,973.53
2019-01-23T01:47:54.568Z,973.51
2019-01-23T01:48:54.496Z,973.52
2019-01-23T01:49:54.384Z,973.51
2019-01-23T01:50:54.297Z,973.48
2019-01-23T01:51:54.211Z,973.56
2019-01-23T01:52:54.123Z,973.59
2019-01-23T01:53:54.035Z,973.56
2019-01-23T01:54:53.950Z,973.55
2019-01-23T01:55:53.863Z,973.56
2019-01-23T01:56:53.778Z,973.56
2019-01-23T01:57:53.689Z,973.55
2019-01-23T01:58:53.603Z,973.54
2019-01-23T01:59:53.515Z,973.51
2019-01-23T02:00:53.428Z,973.49
2019-01-23T02:01:53.340Z,973.49
2019-01-23T02:02:53.256Z,973.49
2019-01-23T02:03:53.168Z,973.46
2019-01-23T02:04:53.079Z,973.44
2019-01-23T02:05:52.992Z,973.47
2019-01-23T02:06:52.906Z,973.48
2019-01-23T02:07:52.823Z,973.39
2019-01-23T02:08:52.731Z,973.37
2019-01-23T02:09:52.644Z,973.34
2019-01-23T02:10:52.557Z,973.32
2019-01-23T02:11:52.470Z,973.30
2019-01-23T02:12:52.385Z,973.29
2019-01-23T02:13:52.296Z,973.31
2019-01-23T02:14:52.209Z,973.28
2019-01-23T02:15:52.123Z,973.24
2019-01-23T02:16:52.036Z,973.28
2019-01-23T02:17:51.948Z,973.24
2019-01-23T02:18:51.861Z,973.24
2019-01-23T02:19:51.775Z,973.20
2019-01-23T02:20:51.687Z,973.20
2019-01-23T02:21:51.600Z,973.18
2019-01-23T02:22:51.513Z,973.16
2019-01-23T02:23:51.426Z,973.18
2019-01-23T02:24:51.342Z,973.12
2019-01-23T02:25:51.302Z,973.16
2019-01-23T02:26:51.166Z,973.14
2019-01-23T02:27:51.080Z,973.10
2019-01-23T02:28:50.994Z,973.10
2019-01-23T02:29:50.905Z,973.10
2019-01-23T02:30:50.819Z,973.07
2019-01-23T02:31:50.731Z,973.06
2019-01-23T02:32:50.646Z,973.04
2019-01-23T02:33:50.557Z,973.04
2019-01-23T02:34:50.472Z,973.02
2019-01-23T02:35:50.383Z,972.99
2019-01-23T02:36:50.301Z,972.99
2019-01-23T02:37:50.213Z,972.98
2019-01-23T02:38:50.125Z,972.97
2019-01-23T02:39:50.037Z,972.98
2019-01-23T02:40:49.956Z,972.95
2019-01-23T02:41:50.966Z,972.94
2019-01-23T02:42:49.776Z,972.94
2019-01-23T02:43:49.690Z,972.93
2019-01-23T02:44:49.649Z,972.90
2019-01-23T02:45:49.524Z,972.89
2019-01-23T02:46:49.427Z,972.88
2019-01-23T02:47:49.343Z,972.85
2019-01-23T02:48:49.256Z,972.82
2019-01-23T02:49:49.166Z,972.83
2019-01-23T02:50:49.081Z,972.83
2019-01-23T02:51:48.995Z,972.84
2019-01-23T02:52:48.911Z,972.81
2019-01-23T02:53:48.819Z,972.76
2019-01-23T02:54:48.731Z,972.70
2019-01-23T02:55:48.646Z,972.71
2019-01-23T02:56:48.558Z,972.72
2019-01-23T02:57:48.472Z,972.68
2019-01-23T02:58:48.384Z,972.65
2019-01-23T02:59:48.297Z,972.66
2019-01-23T03:00:48.210Z,972.65
2019-01-23T03:01:48.123Z,972.61
2019-01-23T03:02:48.037Z,972.65
2019-01-23T03:03:47.952Z,972.63
2019-01-23T03:04:47.863Z,972.58
2019-01-23T03:05:47.775Z,972.63
2019-01-23T03:06:47.688Z,972.61
2019-01-23T03:07:47.603Z,972.61
2019-01-23T03:08:47.514Z,972.57
2019-01-23T03:09:47.427Z,972.55
2019-01-23T03:10:47.339Z,972.56
2019-01-23T03:11:47.254Z,972.54
2019-01-23T03:12:47.166Z,972.59
2019-01-23T03:13:47.078Z,972.50
2019-01-23T03:14:46.992Z,972.52
2019-01-23T03:15:46.903Z,972.50
2019-01-23T03:16:46.817Z,972.47
2019-01-23T03:17:46.729Z,972.47
2019-01-23T03:18:46.642Z,972.51
2019-01-23T03:19:46.555Z,972.44
2019-01-23T03:20:46.468Z,972.43
2019-01-23T03:21:46.381Z,972.37
2019-01-23T03:22:46.305Z,972.33
2019-01-23T03:23:46.206Z,972.35
2019-01-23T03:24:46.119Z,972.32
2019-01-23T03:25:46.031Z,972.30
2019-01-23T03:26:45.945Z,972.29
2019-01-23T03:27:45.859Z,972.33
2019-01-23T03:28:45.771Z,972.30
2019-01-23T03:29:45.683Z,972.26
2019-01-23T03:30:45.596Z,972.28
2019-01-23T03:31:45.520Z,972.27
2019-01-23T03:32:45.441Z,972.28
2019-01-23T03:33:45.332Z,972.26
2019-01-23T03:34:45.244Z,972.23
2019-01-23T03:35:45.263Z,972.23
2019-01-23T03:36:45.072Z,972.23
2019-01-23T03:37:44.983Z,972.23
2019-01-23T03:38:44.896Z,972.26
2019-01-23T03:39:44.807Z,972.24
2019-01-23T03:40:44.721Z,972.26
2019-01-23T03:41:44.632Z,972.27
2019-01-23T03:42:44.545Z,972.27
2019-01-23T03:43:44.457Z,972.27
2019-01-23T03:44:44.374Z,972.29
2019-01-23T03:45:44.333Z,972.23
2019-01-23T03:46:44.194Z,972.25
2019-01-23T03:47:44.113Z,972.25
2019-01-23T03:48:44.020Z,972.23
2019-01-23T03:49:43.932Z,972.26
2019-01-23T03:50:43.945Z,972.29
2019-01-23T03:51:43.760Z,972.26
2019-01-23T03:52:43.674Z,972.23
2019-01-23T03:53:43.585Z,972.23
2019-01-23T03:54:43.497Z,972.22
2019-01-23T03:55:43.408Z,972.17
2019-01-23T03:56:43.322Z,972.21
2019-01-23T03:57:43.233Z,972.21
2019-01-23T03:58:43.146Z,972.18
2019-01-23T03:59:43.058Z,972.10
2019-01-23T04:00:43.021Z,972.12
2019-01-23T04:01:42.887Z,972.15
2019-01-23T04:02:42.801Z,972.13
2019-01-23T04:03:42.709Z,972.14
2019-01-23T04:04:42.621Z,972.12
2019-01-23T04:05:42.535Z,972.09
2019-01-23T04:06:42.448Z,972.13
2019-01-23T04:07:42.362Z,972.12
2019-01-23T04:08:42.272Z,972.11
2019-01-23T04:09:42.184Z,972.08
2019-01-23T04:10:42.099Z,972.09
2019-01-23T04:11:42.011Z,972.02
2019-01-23T04:12:41.927Z,972.06
2019-01-23T04:13:41.838Z,972.02
2019-01-23T04:14:41.753Z,972.04
2019-01-23T04:15:41.662Z,972.02
2019-01-23T04:16:41.628Z,971.99
2019-01-23T04:17:41.496Z,972.00
2019-01-23T04:18:41.400Z,971.99
2019-01-23T04:19:41.322Z,971.93
2019-01-23T04:20:41.231Z,971.98
2019-01-23T04:21:41.177Z,971.97
2019-01-23T04:22:41.052Z,971.96
2019-01-23T04:23:40.970Z,971.94
2019-01-23T04:24:40.878Z,971.95
2019-01-23T04:25:40.794Z,971.94
2019-01-23T04:26:40.704Z,971.91
2019-01-23T04:27:40.629Z,971.89
2019-01-23T04:28:40.529Z,971.89
2019-01-23T04:29:40.445Z,971.86
2019-01-23T04:30:40.357Z,971.90
2019-01-23T04:31:40.322Z,971.83
2019-01-23T04:32:40.181Z,971.85
2019-01-23T04:33:40.093Z,971.84
2019-01-23T04:34:40.009Z,971.83
2019-01-23T04:35:39.918Z,971.82
2019-01-23T04:36:39.831Z,971.77
2019-01-23T04:37:39.743Z,971.76
2019-01-23T04:38:39.656Z,971.78
2019-01-23T04:39:39.567Z,971.76
2019-01-23T04:40:39.482Z,971.75
2019-01-23T04:41:39.395Z,971.78
2019-01-23T04:42:39.305Z,971.76
2019-01-23T04:43:39.219Z,971.78
2019-01-23T04:44:39.132Z,971.78
2019-01-23T04:45:39.042Z,971.75
2019-01-23T04:46:39.007Z,971.77
2019-01-23T04:47:38.869Z,971.80
2019-01-23T04:48:38.781Z,971.79
2019-01-23T04:49:38.692Z,971.78
2019-01-23T04:50:38.607Z,971.75
2019-01-23T04:51:38.518Z,971.68
2019-01-23T04:52:38.435Z,971.71
2019-01-23T04:53:38.343Z,971.72
2019-01-23T04:54:38.254Z,971.69
2019-01-23T04:55:38.168Z,971.70
2019-01-23T04:56:38.087Z,971.63
2019-01-23T04:57:37.991Z,971.73
2019-01-23T04:58:37.905Z,971.70
2019-01-23T04:59:37.816Z,971.65
2019-01-23T05:00:37.730Z,971.66
2019-01-23T05:01:37.651Z,971.67
2019-01-23T05:02:37.557Z,971.62
2019-01-23T05:03:37.467Z,971.65
2019-01-23T05:04:37.378Z,971.63
2019-01-23T05:05:37.290Z,971.61
2019-01-23T05:06:37.205Z,971.61
2019-01-23T05:07:37.115Z,971.60
2019-01-23T05:08:37.027Z,971.60
2019-01-23T05:09:36.938Z,971.61
2019-01-23T05:10:36.850Z,971.56
2019-01-23T05:11:36.767Z,971.57
2019-01-23T05:12:36.679Z,971.57
2019-01-23T05:13:36.587Z,971.56
2019-01-23T05:14:36.501Z,971.58
2019-01-23T05:15:36.411Z,971.50
2019-01-23T05:16:36.323Z,971.53
2019-01-23T05:17:36.234Z,971.54
2019-01-23T05:18:36.147Z,971.53
2019-01-23T05:19:36.060Z,971.52
2019-01-23T05:20:35.972Z,971.50
2019-01-23T05:21:35.884Z,971.52
2019-01-23T05:22:35.845Z,971.46
2019-01-23T05:23:35.707Z,971.50
2019-01-23T05:24:35.621Z,971.45
2019-01-23T05:25:35.530Z,971.47
2019-01-23T05:26:35.442Z,971.46
2019-01-23T05:27:35.355Z,971.44
2019-01-23T05:28:35.270Z,971.43
2019-01-23T05:29:35.182Z,971.45
2019-01-23T05:30:35.090Z,971.45
2019-01-23T05:31:35.007Z,971.42
2019-01-23T05:32:34.919Z,971.44
2019-01-23T05:33:34.828Z,971.42
2019-01-23T05:34:34.739Z,971.46
2019-01-23T05:35:34.651Z,971.47
2019-01-23T05:36:34.570Z,971.51
2019-01-23T05:37:34.473Z,971.42
2019-01-23T05:38:34.386Z,971.43
2019-01-23T05:39:34.300Z,971.43
2019-01-23T05:40:34.221Z,971.40
2019-01-23T05:41:34.122Z,971.43
2019-01-23T05:42:34.035Z,971.41
2019-01-23T05:43:33.947Z,971.37
2019-01-23T05:44:33.858Z,971.41
2019-01-23T05:45:33.770Z,971.37
2019-01-23T05:46:33.681Z,971.38
2019-01-23T05:47:33.595Z,971.35
2019-01-23T05:48:33.508Z,971.39
2019-01-23T05:49:33.428Z,971.35
2019-01-23T05:50:33.330Z,971.35
2019-01-23T05:51:33.240Z,971.31
2019-01-23T05:52:33.155Z,971.34
2019-01-23T05:53:33.066Z,971.31
2019-01-23T05:54:32.979Z,971.32
2019-01-23T05:55:32.892Z,971.33
2019-01-23T05:56:32.812Z,971.28
2019-01-23T05:57:32.714Z,971.32
2019-01-23T05:58:32.628Z,971.25
2019-01-23T05:59:32.546Z,971.32
2019-01-23T06:00:32.450Z,971.30
2019-01-23T06:01:32.360Z,971.28
2019-01-23T06:02:32.275Z,971.27
2019-01-23T06:03:32.336Z,971.26
2019-01-23T06:04:32.097Z,971.30
2019-01-23T06:05:32.010Z,971.27
2019-01-23T06:06:31.922Z,971.30
2019-01-23T06:07:31.845Z,971.34
2019-01-23T06:08:31.746Z,971.29
2019-01-23T06:09:31.658Z,971.31
2019-01-23T06:10:31.572Z,971.31
2019-01-23T06:11:31.521Z,971.31
2019-01-23T06:12:31.394Z,971.33
2019-01-23T06:13:31.306Z,971.33
2019-01-23T06:14:31.367Z,971.29
2019-01-23T06:15:31.133Z,971.29
2019-01-23T06:16:31.043Z,971.27
2019-01-23T06:17:30.955Z,971.30
2019-01-23T06:18:30.868Z,971.28
2019-01-23T06:19:30.779Z,971.30
2019-01-23T06:20:30.692Z,971.29
2019-01-23T06:21:30.604Z,971.27
2019-01-23T06:22:30.517Z,971.33
2019-01-23T06:23:30.428Z,971.28
2019-01-23T06:24:30.342Z,971.28
2019-01-23T06:25:30.257Z,971.29
2019-01-23T06:26:30.167Z,971.27
2019-01-23T06:27:30.078Z,971.30
2019-01-23T06:28:29.991Z,971.29
2019-01-23T06:29:29.903Z,971.28
2019-01-23T06:30:29.816Z,971.25
2019-01-23T06:31:29.729Z,971.29
2019-01-23T06:32:29.642Z,971.30
2019-01-23T06:33:29.553Z,971.32
2019-01-23T06:34:29.466Z,971.32
2019-01-23T06:35:29.378Z,971.32
2019-01-23T06:36:29.291Z,971.28
2019-01-23T06:37:29.204Z,971.32
2019-01-23T06:38:29.116Z,971.29
2019-01-23T06:39:29.030Z,971.31
2019-01-23T06:40:28.942Z,971.28
2019-01-23T06:41:28.854Z,971.27
2019-01-23T06:42:28.766Z,971.33
2019-01-23T06:43:28.681Z,971.33
2019-01-23T06:44:28.592Z,971.31
2019-01-23T06:45:28.503Z,971.29
2019-01-23T06:46:28.416Z,971.28
2019-01-23T06:47:28.329Z,971.32
2019-01-23T06:48:28.242Z,971.37
2019-01-23T06:49:28.154Z,971.32
2019-01-23T06:50:28.084Z,971.34
2019-01-23T06:51:27.979Z,971.37
2019-01-23T06:52:27.898Z,971.34
2019-01-23T06:53:27.806Z,971.30
2019-01-23T06:54:27.716Z,971.31
2019-01-23T06:55:27.629Z,971.32
2019-01-23T06:56:27.641Z,971.33
2019-01-23T06:57:27.455Z,971.35
2019-01-23T06:58:27.364Z,971.29
2019-01-23T06:59:27.278Z,971.31
2019-01-23T07:00:27.191Z,971.32
2019-01-23T07:01:27.103Z,971.31
2019-01-23T07:02:27.014Z,971.32
2019-01-23T07:03:26.928Z,971.31
2019-01-23T07:04:26.840Z,971.30
2019-01-23T07:05:26.754Z,971.34
2019-01-23T07:06:26.764Z,971.33
2019-01-23T07:07:26.578Z,971.32
2019-01-23T07:08:26.493Z,971.36
2019-01-23T07:09:26.402Z,971.31
2019-01-23T07:10:26.315Z,971.28
2019-01-23T07:11:26.226Z,971.28
2019-01-23T07:12:26.139Z,971.31
2019-01-23T07:13:26.052Z,971.29
2019-01-23T07:14:25.963Z,971.33
2019-01-23T07:15:25.884Z,971.33
2019-01-23T07:16:25.788Z,971.34
2019-01-23T07:17:25.700Z,971.32
2019-01-23T07:18:25.612Z,971.29
2019-01-23T07:19:25.526Z,971.30
2019-01-23T07:20:25.437Z,971.28
2019-01-23T07:21:25.348Z,971.27
2019-01-23T07:22:25.261Z,971.28
2019-01-23T07:23:25.172Z,971.28
2019-01-23T07:24:25.086Z,971.29
2019-01-23T07:25:24.997Z,971.26
2019-01-23T07:26:24.909Z,971.25
2019-01-23T07:27:24.822Z,971.21
2019-01-23T07:28:24.734Z,971.20
2019-01-23T07:29:24.646Z,971.24
2019-01-23T07:30:24.622Z,971.26
2019-01-23T07:31:24.473Z,971.24
2019-01-23T07:32:24.426Z,971.22
2019-01-23T07:33:24.303Z,971.25
2019-01-23T07:34:24.208Z,971.20
2019-01-23T07:35:24.121Z,971.24
2019-01-23T07:36:24.034Z,971.20
2019-01-23T07:37:23.944Z,971.22
2019-01-23T07:38:23.857Z,971.21
2019-01-23T07:39:23.768Z,971.17
2019-01-23T07:40:23.681Z,971.17
2019-01-23T07:41:23.618Z,971.15
2019-01-23T07:42:23.507Z,971.11
2019-01-23T07:43:23.419Z,971.17
2019-01-23T07:44:23.332Z,971.17
2019-01-23T07:45:23.242Z,971.13
2019-01-23T07:46:23.156Z,971.18
2019-01-23T07:47:23.071Z,971.13
2019-01-23T07:48:22.983Z,971.15
2019-01-23T07:49:22.893Z,971.20
2019-01-23T07:50:22.806Z,971.18
2019-01-23T07:51:22.717Z,971.15
2019-01-23T07:52:22.630Z,971.14
2019-01-23T07:53:22.543Z,971.13
2019-01-23T07:54:22.456Z,971.10
2019-01-23T07:55:22.368Z,971.14
2019-01-23T07:56:22.280Z,971.10
2019-01-23T07:57:22.193Z,971.11
2019-01-23T07:58:22.106Z,971.11
2019-01-23T07:59:22.018Z,971.09
2019-01-23T08:00:21.930Z,971.13
2019-01-23T08:01:21.844Z,971.10
2019-01-23T08:02:21.753Z,971.06
2019-01-23T08:03:21.667Z,971.09
2019-01-23T08:04:21.579Z,971.13
2019-01-23T08:05:21.491Z,971.12
2019-01-23T08:06:21.405Z,971.11
2019-01-23T08:07:21.316Z,971.18
2019-01-23T08:08:21.229Z,971.14
2019-01-23T08:09:21.139Z,971.17
2019-01-23T08:10:21.050Z,971.11
2019-01-23T08:11:20.964Z,971.06
2019-01-23T08:12:20.877Z,971.06
2019-01-23T08:13:20.829Z,971.04
2019-01-23T08:14:20.701Z,971.04
2019-01-23T08:15:20.619Z,971.03
2019-01-23T08:16:20.525Z,971.01
2019-01-23T08:17:20.436Z,971.01
2019-01-23T08:18:20.349Z,970.95
2019-01-23T08:19:20.263Z,971.01
2019-01-23T08:20:20.175Z,970.98
2019-01-23T08:21:20.085Z,970.98
2019-01-23T08:22:19.999Z,970.99
2019-01-23T08:23:19.912Z,970.97
2019-01-23T08:24:19.821Z,971.02
2019-01-23T08:25:19.734Z,971.02
2019-01-23T08:26:19.645Z,971.02
2019-01-23T08:27:19.560Z,971.02
2019-01-23T08:28:19.471Z,971.03
2019-01-23T08:29:19.383Z,971.05
2019-01-23T08:30:19.300Z,971.06
2019-01-23T08:31:19.206Z,971.04
2019-01-23T08:32:19.119Z,971.03
2019-01-23T08:33:19.032Z,971.05
2019-01-23T08:34:18.945Z,971.09
2019-01-23T08:35:18.858Z,971.06
2019-01-23T08:36:18.770Z,971.08
2019-01-23T08:37:18.683Z,971.05
2019-01-23T08:38:18.593Z,971.06
2019-01-23T08:39:18.507Z,971.02
2019-01-23T08:40:18.421Z,971.09
2019-01-23T08:41:18.334Z,971.05
2019-01-23T08:42:18.243Z,971.02
2019-01-23T08:43:18.159Z,971.01
2019-01-23T08:44:18.119Z,971.03
2019-01-23T08:45:17.981Z,971.04
2019-01-23T08:46:17.893Z,971.03
2019-01-23T08:47:17.807Z,970.99
2019-01-23T08:48:17.719Z,970.99
2019-01-23T08:49:17.631Z,971.02
2019-01-23T08:50:17.543Z,971.01
2019-01-23T08:51:17.459Z,971.03
2019-01-23T08:52:17.369Z,971.02
2019-01-23T08:53:17.281Z,971.02
2019-01-23T08:54:17.193Z,971.02
2019-01-23T08:55:17.108Z,970.99
2019-01-23T08:56:17.019Z,970.97
2019-01-23T08:57:16.930Z,971.05
2019-01-23T08:58:16.842Z,971.01
2019-01-23T08:59:16.757Z,971.06
2019-01-23T09:00:16.667Z,971.08
2019-01-23T09:01:16.580Z,971.08
2019-01-23T09:02:16.493Z,971.12
2019-01-23T09:03:16.405Z,971.09
2019-01-23T09:04:16.319Z,971.09
2019-01-23T09:05:16.234Z,971.10
2019-01-23T09:06:16.143Z,971.08
2019-01-23T09:07:16.056Z,971.09
2019-01-23T09:08:15.969Z,971.16
2019-01-23T09:09:15.893Z,971.10
2019-01-23T09:10:15.794Z,971.14
2019-01-23T09:11:15.707Z,971.20
2019-01-23T09:12:15.620Z,971.17
2019-01-23T09:13:15.532Z,971.15
2019-01-23T09:14:15.443Z,971.13
2019-01-23T09:15:15.355Z,971.13
2019-01-23T09:16:15.270Z,971.17
2019-01-23T09:17:15.181Z,971.16
2019-01-23T09:18:15.094Z,971.20
2019-01-23T09:19:15.007Z,971.18
2019-01-23T09:20:14.921Z,971.17
2019-01-23T09:21:14.833Z,971.14
2019-01-23T09:22:14.746Z,971.13
2019-01-23T09:23:14.660Z,971.17
2019-01-23T09:24:14.572Z,971.13
2019-01-23T09:25:14.485Z,971.21
2019-01-23T09:26:14.399Z,971.20
2019-01-23T09:27:14.312Z,971.23
2019-01-23T09:28:14.228Z,971.22
2019-01-23T09:29:14.140Z,971.22
2019-01-23T09:30:14.400Z,971.23
2019-01-23T09:31:13.966Z,971.22
2019-01-23T09:32:13.877Z,971.23
2019-01-23T09:33:13.790Z,971.21
2019-01-23T09:34:13.704Z,971.25
2019-01-23T09:35:13.618Z,971.24
2019-01-23T09:36:13.531Z,971.25
2019-01-23T09:37:13.444Z,971.27
2019-01-23T09:38:13.357Z,971.24
2019-01-23T09:39:13.271Z,971.24
2019-01-23T09:40:13.185Z,971.31
2019-01-23T09:41:13.097Z,971.24
2019-01-23T09:42:13.012Z,971.27
2019-01-23T09:43:12.924Z,971.25
2019-01-23T09:44:12.840Z,971.25
2019-01-23T09:45:12.751Z,971.25
2019-01-23T09:46:12.665Z,971.26
2019-01-23T09:47:12.582Z,971.26
2019-01-23T09:48:12.493Z,971.30
2019-01-23T09:49:12.408Z,971.27
2019-01-23T09:50:12.420Z,971.30
2019-01-23T09:51:12.235Z,971.28
2019-01-23T09:52:12.148Z,971.29
2019-01-23T09:53:12.061Z,971.24
2019-01-23T09:54:11.976Z,971.30
2019-01-23T09:55:11.888Z,971.28
2019-01-23T09:56:11.803Z,971.26
2019-01-23T09:57:11.716Z,971.25
2019-01-23T09:58:11.630Z,971.26
2019-01-23T09:59:11.544Z,971.26
2019-01-23T10:00:11.461Z,971.25
2019-01-23T10:01:11.370Z,971.29
2019-01-23T10:02:11.283Z,971.33
2019-01-23T10:03:11.200Z,971.25
2019-01-23T10:04:11.111Z,971.23
2019-01-23T10:05:11.025Z,971.25
2019-01-23T10:06:10.939Z,971.27
2019-01-23T10:07:10.852Z,971.28
2019-01-23T10:08:10.769Z,971.32
2019-01-23T10:09:10.685Z,971.31
2019-01-23T10:10:10.593Z,971.29
2019-01-23T10:11:10.507Z,971.29
2019-01-23T10:12:10.421Z,971.29
2019-01-23T10:13:10.335Z,971.31
2019-01-23T10:14:10.252Z,971.26
2019-01-23T10:15:10.166Z,971.24
2019-01-23T10:16:10.080Z,971.22
2019-01-23T10:17:09.991Z,971.22
2019-01-23T10:18:09.904Z,971.20
2019-01-23T10:19:09.818Z,971.22
2019-01-23T10:20:09.733Z,971.19
2019-01-23T10:21:09.645Z,971.18
2019-01-23T10:22:09.560Z,971.19
2019-01-23T10:23:09.474Z,971.26
2019-01-23T10:24:09.388Z,971.27
2019-01-23T10:25:09.301Z,971.27
2019-01-23T10:26:09.215Z,971.29
2019-01-23T10:27:09.129Z,971.30
2019-01-23T10:28:09.043Z,971.24
2019-01-23T10:29:08.957Z,971.24
2019-01-23T10:30:08.870Z,971.24
2019-01-23T10:31:08.784Z,971.25
2019-01-23T10:32:08.697Z,971.19
2019-01-23T10:33:08.616Z,971.21
2019-01-23T10:34:08.525Z,971.20
2019-01-23T10:35:08.439Z,971.17
2019-01-23T10:36:08.353Z,971.16
2019-01-23T10:37:08.267Z,971.18
2019-01-23T10:38:08.181Z,971.16
2019-01-23T10:39:08.093Z,971.14
2019-01-23T10:40:08.008Z,971.14
2019-01-23T10:41:07.922Z,971.12
2019-01-23T10:42:07.833Z,971.07
2019-01-23T10:43:07.749Z,971.07
2019-01-23T10:44:07.662Z,971.08
2019-01-23T10:45:07.576Z,971.09
2019-01-23T10:46:07.490Z,971.06
2019-01-23T10:47:07.404Z,971.06
2019-01-23T10:48:07.319Z,971.06
2019-01-23T10:49:07.232Z,971.02
2019-01-23T10:50:07.144Z,971.06
2019-01-23T10:51:07.061Z,971.02
2019-01-23T10:52:06.974Z,971.03
2019-01-23T10:53:06.889Z,971.02
2019-01-23T10:54:06.800Z,971.04
2019-01-23T10:55:06.714Z,971.04
2019-01-23T10:56:06.628Z,971.01
2019-01-23T10:57:06.541Z,971.05
2019-01-23T10:58:06.460Z,971.02
2019-01-23T10:59:06.370Z,971.02
2019-01-23T11:00:06.284Z,971.02
2019-01-23T11:01:06.197Z,970.99
2019-01-23T11:02:06.113Z,970.97
2019-01-23T11:03:10.018Z,970.99
2019-01-23T11:04:05.941Z,971.01
2019-01-23T11:05:05.855Z,971.03
2019-01-23T11:06:05.772Z,971.02
2019-01-23T11:07:05.682Z,971.04
2019-01-23T11:08:05.598Z,971.02
2019-01-23T11:09:05.562Z,971.03
2019-01-23T11:10:05.425Z,971.02
2019-01-23T11:11:05.338Z,970.99
2019-01-23T11:12:05.253Z,971.03
2019-01-23T11:13:05.165Z,971.02
2019-01-23T11:14:05.082Z,970.99
2019-01-23T11:15:04.994Z,971.00
2019-01-23T11:16:04.910Z,971.02
2019-01-23T11:17:04.823Z,971.04
2019-01-23T11:18:04.737Z,971.04
2019-01-23T11:19:04.651Z,971.02
2019-01-23T11:20:04.565Z,971.06
2019-01-23T11:21:04.488Z,971.04
2019-01-23T11:22:04.392Z,971.02
2019-01-23T11:23:04.308Z,971.01
2019-01-23T11:24:04.223Z,971.02
2019-01-23T11:25:04.139Z,971.01
2019-01-23T11:26:04.051Z,971.02
2019-01-23T11:27:03.964Z,971.02
2019-01-23T11:28:03.878Z,971.04
2019-01-23T11:29:03.792Z,971.03
2019-01-23T11:30:03.708Z,971.02
2019-01-23T11:31:03.619Z,971.05
2019-01-23T11:32:03.533Z,971.07
2019-01-23T11:33:03.451Z,971.05
2019-01-23T11:34:03.361Z,971.03
2019-01-23T11:35:03.275Z,971.06
2019-01-23T11:36:03.195Z,971.04
2019-01-23T11:37:03.104Z,971.04
2019-01-23T11:38:03.016Z,971.06
2019-01-23T11:39:03.260Z,971.01
2019-01-23T11:40:02.843Z,971.02
2019-01-23T11:41:02.757Z,971.03
2019-01-23T11:42:02.672Z,971.01
2019-01-23T11:43:02.585Z,970.98
2019-01-23T11:44:02.501Z,970.99
2019-01-23T11:45:02.412Z,971.01
2019-01-23T11:46:02.324Z,970.99
2019-01-23T11:47:02.240Z,970.98
2019-01-23T11:48:02.153Z,970.97
2019-01-23T11:49:02.068Z,970.97
2019-01-23T11:50:01.979Z,970.97
2019-01-23T11:51:01.897Z,970.92
2019-01-23T11:52:01.808Z,970.94
2019-01-23T11:53:01.721Z,970.94
2019-01-23T11:54:01.635Z,970.89
2019-01-23T11:55:01.548Z,970.91
2019-01-23T11:56:01.463Z,970.94
2019-01-23T11:57:01.376Z,970.95
2019-01-23T11:58:01.289Z,970.97
2019-01-23T11:59:01.203Z,970.93
2019-01-23T12:00:01.117Z,971.04
2019-01-23T12:01:01.029Z,971.00
2019-01-23T12:02:00.946Z,971.01
2019-01-23T12:03:00.859Z,971.01
2019-01-23T12:04:00.771Z,971.03
2019-01-23T12:05:00.683Z,971.02
2019-01-23T12:06:00.601Z,971.03
2019-01-23T12:07:00.512Z,971.02
2019-01-23T12:08:00.426Z,971.03
2019-01-23T12:09:00.338Z,970.97
2019-01-23T12:10:00.260Z,971.01
2019-01-23T12:11:00.166Z,970.98
2019-01-23T12:12:00.080Z,971.00
2019-01-23T12:12:59.992Z,970.95
2019-01-23T12:13:59.906Z,971.01
2019-01-23T12:14:59.827Z,970.94
2019-01-23T12:15:59.732Z,971.01
2019-01-23T12:16:59.645Z,971.02
2019-01-23T12:17:59.560Z,971.06
2019-01-23T12:18:59.473Z,971.01
2019-01-23T12:19:59.385Z,970.99
2019-01-23T12:20:59.300Z,971.01
2019-01-23T12:21:59.213Z,971.00
2019-01-23T12:22:59.127Z,971.05
2019-01-23T12:23:59.041Z,970.99
2019-01-23T12:24:58.953Z,971.01
2019-01-23T12:25:58.867Z,971.04
2019-01-23T12:26:58.780Z,971.00